sensor_id;sensor_type;location;lat;lon;timestamp;P1;durP1;ratioP1;P2;durP2;ratioP2
31004;SDS011;17676;52.254;4.490;2023-04-29T00:00:53;31.02;;;23.73;;
31004;SDS011;17676;52.254;4.490;2023-04-29T00:03:19;40.38;;;23.08;;
31004;SDS011;17676;52.254;4.490;2023-04-29T00:05:45;36.45;;;24.30;;
31004;SDS011;17676;52.254;4.490;2023-04-29T00:08:10;35.55;;;22.27;;
31004;SDS011;17676;52.254;4.490;2023-04-29T00:10:36;30.15;;;22.25;;
31004;SDS011;17676;52.254;4.490;2023-04-29T00:13:03;29.30;;;21.17;;
31004;SDS011;17676;52.254;4.490;2023-04-29T00:15:29;33.10;;;21.42;;
31004;SDS011;17676;52.254;4.490;2023-04-29T00:17:54;32.22;;;22.73;;
31004;SDS011;17676;52.254;4.490;2023-04-29T00:20:20;34.75;;;22.80;;
31004;SDS011;17676;52.254;4.490;2023-04-29T00:22:46;30.10;;;22.55;;
31004;SDS011;17676;52.254;4.490;2023-04-29T00:25:12;32.53;;;24.00;;
31004;SDS011;17676;52.254;4.490;2023-04-29T00:27:37;34.15;;;23.15;;
31004;SDS011;17676;52.254;4.490;2023-04-29T00:30:04;34.85;;;24.23;;
31004;SDS011;17676;52.254;4.490;2023-04-29T00:32:32;33.92;;;23.60;;
31004;SDS011;17676;52.254;4.490;2023-04-29T00:34:57;34.85;;;23.50;;
31004;SDS011;17676;52.254;4.490;2023-04-29T00:37:23;39.85;;;24.02;;
31004;SDS011;17676;52.254;4.490;2023-04-29T00:39:49;35.88;;;24.70;;
31004;SDS011;17676;52.254;4.490;2023-04-29T00:42:14;35.60;;;24.20;;
31004;SDS011;17676;52.254;4.490;2023-04-29T00:44:40;36.40;;;23.75;;
31004;SDS011;17676;52.254;4.490;2023-04-29T00:47:06;32.35;;;23.73;;
31004;SDS011;17676;52.254;4.490;2023-04-29T00:49:38;32.15;;;22.27;;
31004;SDS011;17676;52.254;4.490;2023-04-29T00:52:04;36.58;;;23.33;;
31004;SDS011;17676;52.254;4.490;2023-04-29T00:54:32;31.80;;;21.83;;
31004;SDS011;17676;52.254;4.490;2023-04-29T00:56:59;29.70;;;21.63;;
31004;SDS011;17676;52.254;4.490;2023-04-29T00:59:27;35.17;;;22.35;;
31004;SDS011;17676;52.254;4.490;2023-04-29T01:01:59;37.58;;;23.48;;
31004;SDS011;17676;52.254;4.490;2023-04-29T01:04:27;33.70;;;22.13;;
31004;SDS011;17676;52.254;4.490;2023-04-29T01:12:53;32.28;;;21.83;;
31004;SDS011;17676;52.254;4.490;2023-04-29T01:15:33;32.70;;;22.10;;
31004;SDS011;17676;52.254;4.490;2023-04-29T01:18:19;32.10;;;22.08;;
31004;SDS011;17676;52.254;4.490;2023-04-29T01:20:58;31.40;;;19.92;;
31004;SDS011;17676;52.254;4.490;2023-04-29T01:23:29;27.92;;;19.20;;
31004;SDS011;17676;52.254;4.490;2023-04-29T01:25:55;26.95;;;18.30;;
31004;SDS011;17676;52.254;4.490;2023-04-29T01:30:51;24.70;;;18.00;;
31004;SDS011;17676;52.254;4.490;2023-04-29T01:33:40;28.15;;;18.15;;
31004;SDS011;17676;52.254;4.490;2023-04-29T01:39:11;25.20;;;17.95;;
31004;SDS011;17676;52.254;4.490;2023-04-29T01:44:12;26.92;;;17.85;;
31004;SDS011;17676;52.254;4.490;2023-04-29T01:46:46;24.48;;;19.50;;
31004;SDS011;17676;52.254;4.490;2023-04-29T01:49:18;25.88;;;18.40;;
31004;SDS011;17676;52.254;4.490;2023-04-29T01:51:44;24.80;;;18.60;;
31004;SDS011;17676;52.254;4.490;2023-04-29T01:54:10;24.98;;;18.40;;
31004;SDS011;17676;52.254;4.490;2023-04-29T01:56:36;27.42;;;17.83;;
31004;SDS011;17676;52.254;4.490;2023-04-29T01:59:01;25.33;;;17.35;;
31004;SDS011;17676;52.254;4.490;2023-04-29T02:01:27;23.23;;;16.85;;
31004;SDS011;17676;52.254;4.490;2023-04-29T02:03:53;27.85;;;17.55;;
31004;SDS011;17676;52.254;4.490;2023-04-29T02:06:19;25.40;;;17.05;;
31004;SDS011;17676;52.254;4.490;2023-04-29T02:08:47;26.58;;;16.98;;
31004;SDS011;17676;52.254;4.490;2023-04-29T02:11:13;25.10;;;17.20;;
31004;SDS011;17676;52.254;4.490;2023-04-29T02:13:39;23.00;;;16.88;;
31004;SDS011;17676;52.254;4.490;2023-04-29T02:16:14;28.17;;;17.73;;
31004;SDS011;17676;52.254;4.490;2023-04-29T02:18:41;22.65;;;16.67;;
31004;SDS011;17676;52.254;4.490;2023-04-29T02:21:07;25.58;;;17.83;;
31004;SDS011;17676;52.254;4.490;2023-04-29T02:23:33;22.05;;;17.42;;
31004;SDS011;17676;52.254;4.490;2023-04-29T02:25:59;23.88;;;16.83;;
31004;SDS011;17676;52.254;4.490;2023-04-29T02:28:25;24.20;;;16.33;;
31004;SDS011;17676;52.254;4.490;2023-04-29T02:30:51;27.13;;;18.88;;
31004;SDS011;17676;52.254;4.490;2023-04-29T02:33:17;24.95;;;17.13;;
31004;SDS011;17676;52.254;4.490;2023-04-29T02:35:43;27.77;;;17.05;;
31004;SDS011;17676;52.254;4.490;2023-04-29T02:38:09;26.35;;;17.92;;
31004;SDS011;17676;52.254;4.490;2023-04-29T02:40:42;25.88;;;17.58;;
31004;SDS011;17676;52.254;4.490;2023-04-29T02:43:09;26.63;;;17.35;;
31004;SDS011;17676;52.254;4.490;2023-04-29T02:45:36;22.15;;;17.25;;
31004;SDS011;17676;52.254;4.490;2023-04-29T02:48:02;20.52;;;16.35;;
31004;SDS011;17676;52.254;4.490;2023-04-29T02:50:30;27.60;;;15.98;;
31004;SDS011;17676;52.254;4.490;2023-04-29T02:52:57;27.70;;;18.10;;
31004;SDS011;17676;52.254;4.490;2023-04-29T02:55:22;27.38;;;17.77;;
31004;SDS011;17676;52.254;4.490;2023-04-29T02:57:48;25.20;;;16.77;;
31004;SDS011;17676;52.254;4.490;2023-04-29T03:00:13;30.65;;;17.40;;
31004;SDS011;17676;52.254;4.490;2023-04-29T03:02:39;21.30;;;14.55;;
31004;SDS011;17676;52.254;4.490;2023-04-29T03:05:05;23.13;;;14.57;;
31004;SDS011;17676;52.254;4.490;2023-04-29T03:07:31;25.10;;;16.08;;
31004;SDS011;17676;52.254;4.490;2023-04-29T03:09:57;26.05;;;16.30;;
31004;SDS011;17676;52.254;4.490;2023-04-29T03:12:23;24.88;;;16.38;;
31004;SDS011;17676;52.254;4.490;2023-04-29T03:14:49;26.73;;;15.27;;
31004;SDS011;17676;52.254;4.490;2023-04-29T03:17:16;24.98;;;15.45;;
31004;SDS011;17676;52.254;4.490;2023-04-29T03:19:42;30.30;;;16.40;;
31004;SDS011;17676;52.254;4.490;2023-04-29T03:22:07;26.10;;;15.82;;
31004;SDS011;17676;52.254;4.490;2023-04-29T03:24:35;33.88;;;17.75;;
31004;SDS011;17676;52.254;4.490;2023-04-29T03:27:01;31.77;;;18.02;;
31004;SDS011;17676;52.254;4.490;2023-04-29T03:29:28;33.15;;;17.05;;
31004;SDS011;17676;52.254;4.490;2023-04-29T03:31:54;28.40;;;17.55;;
31004;SDS011;17676;52.254;4.490;2023-04-29T03:34:21;30.50;;;18.77;;
31004;SDS011;17676;52.254;4.490;2023-04-29T03:36:46;30.67;;;19.17;;
31004;SDS011;17676;52.254;4.490;2023-04-29T03:39:12;28.75;;;19.20;;
31004;SDS011;17676;52.254;4.490;2023-04-29T03:41:37;34.15;;;19.70;;
31004;SDS011;17676;52.254;4.490;2023-04-29T03:44:07;31.60;;;20.02;;
31004;SDS011;17676;52.254;4.490;2023-04-29T03:46:33;36.85;;;20.58;;
31004;SDS011;17676;52.254;4.490;2023-04-29T03:48:59;33.25;;;19.80;;
31004;SDS011;17676;52.254;4.490;2023-04-29T03:51:25;34.45;;;20.48;;
31004;SDS011;17676;52.254;4.490;2023-04-29T03:53:52;37.13;;;20.67;;
31004;SDS011;17676;52.254;4.490;2023-04-29T03:56:19;36.95;;;22.13;;
31004;SDS011;17676;52.254;4.490;2023-04-29T03:58:45;36.92;;;20.98;;
31004;SDS011;17676;52.254;4.490;2023-04-29T04:01:10;41.47;;;22.65;;
31004;SDS011;17676;52.254;4.490;2023-04-29T04:03:37;37.88;;;22.63;;
31004;SDS011;17676;52.254;4.490;2023-04-29T04:06:02;40.28;;;22.60;;
31004;SDS011;17676;52.254;4.490;2023-04-29T04:08:28;42.67;;;22.63;;
31004;SDS011;17676;52.254;4.490;2023-04-29T04:10:54;39.78;;;21.60;;
31004;SDS011;17676;52.254;4.490;2023-04-29T04:13:27;38.33;;;22.92;;
31004;SDS011;17676;52.254;4.490;2023-04-29T04:15:53;41.35;;;23.10;;
31004;SDS011;17676;52.254;4.490;2023-04-29T04:18:18;38.80;;;22.63;;
31004;SDS011;17676;52.254;4.490;2023-04-29T04:20:44;39.13;;;23.70;;
31004;SDS011;17676;52.254;4.490;2023-04-29T04:23:10;43.65;;;23.77;;
31004;SDS011;17676;52.254;4.490;2023-04-29T04:25:36;40.42;;;23.90;;
31004;SDS011;17676;52.254;4.490;2023-04-29T04:28:02;36.13;;;23.67;;
31004;SDS011;17676;52.254;4.490;2023-04-29T04:30:27;43.28;;;23.40;;
31004;SDS011;17676;52.254;4.490;2023-04-29T04:32:53;43.25;;;25.25;;
31004;SDS011;17676;52.254;4.490;2023-04-29T04:35:19;43.60;;;23.92;;
31004;SDS011;17676;52.254;4.490;2023-04-29T04:37:45;36.05;;;23.33;;
31004;SDS011;17676;52.254;4.490;2023-04-29T04:40:10;42.03;;;23.80;;
31004;SDS011;17676;52.254;4.490;2023-04-29T04:42:38;37.92;;;23.25;;
31004;SDS011;17676;52.254;4.490;2023-04-29T04:45:04;30.55;;;20.88;;
31004;SDS011;17676;52.254;4.490;2023-04-29T04:47:30;29.08;;;19.48;;
31004;SDS011;17676;52.254;4.490;2023-04-29T04:49:55;32.38;;;19.50;;
31004;SDS011;17676;52.254;4.490;2023-04-29T04:52:21;32.78;;;17.98;;
31004;SDS011;17676;52.254;4.490;2023-04-29T04:54:47;28.25;;;18.45;;
31004;SDS011;17676;52.254;4.490;2023-04-29T04:57:13;28.95;;;17.80;;
31004;SDS011;17676;52.254;4.490;2023-04-29T04:59:38;28.10;;;19.00;;
31004;SDS011;17676;52.254;4.490;2023-04-29T05:02:04;26.27;;;17.95;;
31004;SDS011;17676;52.254;4.490;2023-04-29T05:04:30;24.90;;;18.35;;
31004;SDS011;17676;52.254;4.490;2023-04-29T05:06:56;28.10;;;18.55;;
31004;SDS011;17676;52.254;4.490;2023-04-29T05:09:21;28.17;;;18.48;;
31004;SDS011;17676;52.254;4.490;2023-04-29T05:11:47;25.88;;;19.00;;
31004;SDS011;17676;52.254;4.490;2023-04-29T05:14:13;29.05;;;19.65;;
31004;SDS011;17676;52.254;4.490;2023-04-29T05:16:38;29.20;;;19.58;;
31004;SDS011;17676;52.254;4.490;2023-04-29T05:19:04;27.33;;;19.02;;
31004;SDS011;17676;52.254;4.490;2023-04-29T05:21:29;30.67;;;19.50;;
31004;SDS011;17676;52.254;4.490;2023-04-29T05:23:55;28.45;;;19.30;;
31004;SDS011;17676;52.254;4.490;2023-04-29T05:26:21;30.23;;;18.92;;
31004;SDS011;17676;52.254;4.490;2023-04-29T05:28:47;31.00;;;20.30;;
31004;SDS011;17676;52.254;4.490;2023-04-29T05:31:13;35.38;;;19.75;;
31004;SDS011;17676;52.254;4.490;2023-04-29T05:33:38;37.83;;;20.75;;
31004;SDS011;17676;52.254;4.490;2023-04-29T05:36:04;31.70;;;18.92;;
31004;SDS011;17676;52.254;4.490;2023-04-29T05:38:30;33.72;;;17.98;;
31004;SDS011;17676;52.254;4.490;2023-04-29T05:40:56;23.45;;;15.63;;
31004;SDS011;17676;52.254;4.490;2023-04-29T05:43:22;28.52;;;15.65;;
31004;SDS011;17676;52.254;4.490;2023-04-29T05:45:48;29.00;;;15.77;;
31004;SDS011;17676;52.254;4.490;2023-04-29T05:48:13;26.23;;;15.73;;
31004;SDS011;17676;52.254;4.490;2023-04-29T05:50:40;23.17;;;14.32;;
31004;SDS011;17676;52.254;4.490;2023-04-29T05:53:06;25.85;;;13.60;;
31004;SDS011;17676;52.254;4.490;2023-04-29T05:55:31;24.23;;;12.80;;
31004;SDS011;17676;52.254;4.490;2023-04-29T05:57:57;23.70;;;12.25;;
31004;SDS011;17676;52.254;4.490;2023-04-29T06:00:23;19.90;;;11.35;;
31004;SDS011;17676;52.254;4.490;2023-04-29T06:02:49;17.48;;;11.40;;
31004;SDS011;17676;52.254;4.490;2023-04-29T06:05:14;21.75;;;11.38;;
31004;SDS011;17676;52.254;4.490;2023-04-29T06:07:41;22.38;;;11.10;;
31004;SDS011;17676;52.254;4.490;2023-04-29T06:10:07;21.23;;;10.90;;
31004;SDS011;17676;52.254;4.490;2023-04-29T06:12:34;23.38;;;11.32;;
31004;SDS011;17676;52.254;4.490;2023-04-29T06:15:00;16.70;;;10.18;;
31004;SDS011;17676;52.254;4.490;2023-04-29T06:17:26;19.45;;;10.88;;
31004;SDS011;17676;52.254;4.490;2023-04-29T06:19:56;15.07;;;9.63;;
31004;SDS011;17676;52.254;4.490;2023-04-29T06:22:26;24.60;;;10.90;;
31004;SDS011;17676;52.254;4.490;2023-04-29T06:24:51;19.33;;;10.00;;
31004;SDS011;17676;52.254;4.490;2023-04-29T06:27:17;17.58;;;9.77;;
31004;SDS011;17676;52.254;4.490;2023-04-29T06:29:42;17.95;;;9.10;;
31004;SDS011;17676;52.254;4.490;2023-04-29T06:32:08;16.67;;;8.38;;
31004;SDS011;17676;52.254;4.490;2023-04-29T06:34:34;11.95;;;7.65;;
31004;SDS011;17676;52.254;4.490;2023-04-29T06:37:01;14.93;;;7.75;;
31004;SDS011;17676;52.254;4.490;2023-04-29T06:39:26;11.80;;;6.43;;
31004;SDS011;17676;52.254;4.490;2023-04-29T06:41:52;10.82;;;5.60;;
31004;SDS011;17676;52.254;4.490;2023-04-29T06:44:18;8.18;;;5.80;;
31004;SDS011;17676;52.254;4.490;2023-04-29T06:46:43;12.23;;;6.10;;
31004;SDS011;17676;52.254;4.490;2023-04-29T06:49:09;12.13;;;6.03;;
31004;SDS011;17676;52.254;4.490;2023-04-29T06:51:36;12.05;;;5.70;;
31004;SDS011;17676;52.254;4.490;2023-04-29T06:54:02;10.57;;;5.22;;
31004;SDS011;17676;52.254;4.490;2023-04-29T06:56:31;10.38;;;5.20;;
31004;SDS011;17676;52.254;4.490;2023-04-29T06:58:57;10.75;;;5.05;;
31004;SDS011;17676;52.254;4.490;2023-04-29T07:01:22;13.63;;;4.88;;
31004;SDS011;17676;52.254;4.490;2023-04-29T07:03:48;12.45;;;5.30;;
31004;SDS011;17676;52.254;4.490;2023-04-29T07:06:14;10.13;;;4.75;;
31004;SDS011;17676;52.254;4.490;2023-04-29T07:08:39;7.95;;;4.95;;
31004;SDS011;17676;52.254;4.490;2023-04-29T07:11:05;11.73;;;5.15;;
31004;SDS011;17676;52.254;4.490;2023-04-29T07:13:33;11.38;;;5.43;;
31004;SDS011;17676;52.254;4.490;2023-04-29T07:16:00;10.57;;;4.72;;
31004;SDS011;17676;52.254;4.490;2023-04-29T07:18:26;6.53;;;4.75;;
31004;SDS011;17676;52.254;4.490;2023-04-29T07:20:52;7.82;;;4.15;;
31004;SDS011;17676;52.254;4.490;2023-04-29T07:23:19;8.27;;;4.40;;
31004;SDS011;17676;52.254;4.490;2023-04-29T07:25:45;8.77;;;3.83;;
31004;SDS011;17676;52.254;4.490;2023-04-29T07:28:11;6.60;;;3.47;;
31004;SDS011;17676;52.254;4.490;2023-04-29T07:30:37;11.60;;;4.22;;
31004;SDS011;17676;52.254;4.490;2023-04-29T07:33:02;7.30;;;3.75;;
31004;SDS011;17676;52.254;4.490;2023-04-29T07:35:28;6.28;;;3.67;;
31004;SDS011;17676;52.254;4.490;2023-04-29T07:37:58;9.68;;;4.20;;
31004;SDS011;17676;52.254;4.490;2023-04-29T07:40:24;6.88;;;4.38;;
31004;SDS011;17676;52.254;4.490;2023-04-29T07:42:50;7.88;;;4.40;;
31004;SDS011;17676;52.254;4.490;2023-04-29T07:45:15;8.57;;;4.55;;
31004;SDS011;17676;52.254;4.490;2023-04-29T07:47:41;6.90;;;4.03;;
31004;SDS011;17676;52.254;4.490;2023-04-29T07:50:07;7.97;;;3.63;;
31004;SDS011;17676;52.254;4.490;2023-04-29T07:52:33;8.60;;;4.28;;
31004;SDS011;17676;52.254;4.490;2023-04-29T07:55:02;6.82;;;3.75;;
31004;SDS011;17676;52.254;4.490;2023-04-29T07:57:28;8.52;;;4.00;;
31004;SDS011;17676;52.254;4.490;2023-04-29T07:59:54;9.23;;;3.45;;
31004;SDS011;17676;52.254;4.490;2023-04-29T08:02:20;6.22;;;3.50;;
31004;SDS011;17676;52.254;4.490;2023-04-29T08:04:46;6.68;;;3.78;;
31004;SDS011;17676;52.254;4.490;2023-04-29T08:07:15;5.53;;;3.70;;
31004;SDS011;17676;52.254;4.490;2023-04-29T08:09:40;7.65;;;4.25;;
31004;SDS011;17676;52.254;4.490;2023-04-29T08:12:07;5.30;;;3.60;;
31004;SDS011;17676;52.254;4.490;2023-04-29T08:14:33;8.68;;;3.58;;
31004;SDS011;17676;52.254;4.490;2023-04-29T08:16:58;6.95;;;3.47;;
31004;SDS011;17676;52.254;4.490;2023-04-29T08:19:24;7.47;;;3.47;;
31004;SDS011;17676;52.254;4.490;2023-04-29T08:21:49;5.90;;;3.63;;
31004;SDS011;17676;52.254;4.490;2023-04-29T08:24:22;12.52;;;4.18;;
31004;SDS011;17676;52.254;4.490;2023-04-29T08:26:48;8.90;;;4.25;;
31004;SDS011;17676;52.254;4.490;2023-04-29T08:29:13;6.93;;;3.75;;
31004;SDS011;17676;52.254;4.490;2023-04-29T08:31:40;5.38;;;3.15;;
31004;SDS011;17676;52.254;4.490;2023-04-29T08:34:05;12.25;;;3.67;;
31004;SDS011;17676;52.254;4.490;2023-04-29T08:36:31;6.05;;;3.25;;
31004;SDS011;17676;52.254;4.490;2023-04-29T08:38:57;10.00;;;3.72;;
31004;SDS011;17676;52.254;4.490;2023-04-29T08:41:23;4.75;;;3.05;;
31004;SDS011;17676;52.254;4.490;2023-04-29T08:43:49;6.07;;;2.72;;
31004;SDS011;17676;52.254;4.490;2023-04-29T08:46:15;3.47;;;2.38;;
31004;SDS011;17676;52.254;4.490;2023-04-29T08:48:42;5.47;;;2.80;;
31004;SDS011;17676;52.254;4.490;2023-04-29T08:51:11;7.47;;;2.58;;
31004;SDS011;17676;52.254;4.490;2023-04-29T08:53:40;11.60;;;2.92;;
31004;SDS011;17676;52.254;4.490;2023-04-29T08:56:11;5.68;;;2.17;;
31004;SDS011;17676;52.254;4.490;2023-04-29T08:58:40;6.88;;;2.13;;
31004;SDS011;17676;52.254;4.490;2023-04-29T09:01:07;5.35;;;2.60;;
31004;SDS011;17676;52.254;4.490;2023-04-29T09:03:49;6.50;;;2.65;;
31004;SDS011;17676;52.254;4.490;2023-04-29T09:06:25;5.18;;;2.60;;
31004;SDS011;17676;52.254;4.490;2023-04-29T09:08:58;5.63;;;2.60;;
31004;SDS011;17676;52.254;4.490;2023-04-29T09:11:25;7.38;;;2.20;;
31004;SDS011;17676;52.254;4.490;2023-04-29T09:13:57;7.00;;;2.58;;
31004;SDS011;17676;52.254;4.490;2023-04-29T09:16:24;7.00;;;2.13;;
31004;SDS011;17676;52.254;4.490;2023-04-29T09:18:52;6.28;;;2.13;;
31004;SDS011;17676;52.254;4.490;2023-04-29T09:21:23;5.95;;;2.00;;
31004;SDS011;17676;52.254;4.490;2023-04-29T09:23:56;5.50;;;1.67;;
31004;SDS011;17676;52.254;4.490;2023-04-29T09:26:23;4.43;;;1.70;;
31004;SDS011;17676;52.254;4.490;2023-04-29T09:29:07;5.10;;;2.10;;
31004;SDS011;17676;52.254;4.490;2023-04-29T09:31:38;5.40;;;1.50;;
31004;SDS011;17676;52.254;4.490;2023-04-29T09:34:06;4.85;;;1.90;;
31004;SDS011;17676;52.254;4.490;2023-04-29T09:36:39;5.47;;;1.83;;
31004;SDS011;17676;52.254;4.490;2023-04-29T09:39:13;3.95;;;1.63;;
31004;SDS011;17676;52.254;4.490;2023-04-29T09:44:19;6.65;;;1.90;;
31004;SDS011;17676;52.254;4.490;2023-04-29T09:46:59;4.50;;;2.00;;
31004;SDS011;17676;52.254;4.490;2023-04-29T09:49:27;4.85;;;1.90;;
31004;SDS011;17676;52.254;4.490;2023-04-29T09:51:56;6.85;;;2.17;;
31004;SDS011;17676;52.254;4.490;2023-04-29T09:54:23;5.63;;;2.35;;
31004;SDS011;17676;52.254;4.490;2023-04-29T09:56:53;6.35;;;2.45;;
31004;SDS011;17676;52.254;4.490;2023-04-29T09:59:20;4.97;;;2.13;;
31004;SDS011;17676;52.254;4.490;2023-04-29T10:01:48;4.72;;;2.20;;
31004;SDS011;17676;52.254;4.490;2023-04-29T10:04:16;7.90;;;2.63;;
31004;SDS011;17676;52.254;4.490;2023-04-29T10:06:43;9.05;;;2.63;;
31004;SDS011;17676;52.254;4.490;2023-04-29T10:09:16;4.05;;;2.17;;
31004;SDS011;17676;52.254;4.490;2023-04-29T10:11:43;7.65;;;3.13;;
31004;SDS011;17676;52.254;4.490;2023-04-29T10:14:16;3.75;;;2.88;;
31004;SDS011;17676;52.254;4.490;2023-04-29T10:22:35;6.63;;;2.63;;
31004;SDS011;17676;52.254;4.490;2023-04-29T10:25:11;5.15;;;2.53;;
31004;SDS011;17676;52.254;4.490;2023-04-29T10:27:41;5.07;;;2.45;;
31004;SDS011;17676;52.254;4.490;2023-04-29T10:30:08;6.13;;;2.58;;
31004;SDS011;17676;52.254;4.490;2023-04-29T10:32:39;8.23;;;2.28;;
31004;SDS011;17676;52.254;4.490;2023-04-29T10:35:07;6.03;;;2.58;;
31004;SDS011;17676;52.254;4.490;2023-04-29T10:37:36;5.05;;;2.92;;
31004;SDS011;17676;52.254;4.490;2023-04-29T10:42:35;3.20;;;2.28;;
31004;SDS011;17676;52.254;4.490;2023-04-29T10:50:34;5.85;;;1.83;;
31004;SDS011;17676;52.254;4.490;2023-04-29T10:53:09;8.02;;;2.80;;
31004;SDS011;17676;52.254;4.490;2023-04-29T10:55:36;6.80;;;2.97;;
31004;SDS011;17676;52.254;4.490;2023-04-29T10:58:02;5.60;;;2.90;;
31004;SDS011;17676;52.254;4.490;2023-04-29T11:00:50;7.13;;;2.90;;
31004;SDS011;17676;52.254;4.490;2023-04-29T11:06:21;6.40;;;2.75;;
31004;SDS011;17676;52.254;4.490;2023-04-29T11:08:58;7.90;;;2.50;;
31004;SDS011;17676;52.254;4.490;2023-04-29T11:11:43;3.50;;;2.88;;
31004;SDS011;17676;52.254;4.490;2023-04-29T11:17:08;5.85;;;3.00;;
31004;SDS011;17676;52.254;4.490;2023-04-29T11:19:43;4.82;;;2.92;;
31004;SDS011;17676;52.254;4.490;2023-04-29T11:22:11;5.60;;;2.10;;
31004;SDS011;17676;52.254;4.490;2023-04-29T11:24:56;4.90;;;2.70;;
31004;SDS011;17676;52.254;4.490;2023-04-29T11:27:33;5.05;;;3.20;;
31004;SDS011;17676;52.254;4.490;2023-04-29T11:30:01;5.82;;;2.92;;
31004;SDS011;17676;52.254;4.490;2023-04-29T11:32:30;6.35;;;3.38;;
31004;SDS011;17676;52.254;4.490;2023-04-29T11:35:15;6.35;;;2.72;;
31004;SDS011;17676;52.254;4.490;2023-04-29T11:38:00;6.50;;;3.17;;
31004;SDS011;17676;52.254;4.490;2023-04-29T11:41:10;8.80;;;3.55;;
31004;SDS011;17676;52.254;4.490;2023-04-29T11:43:36;4.85;;;3.55;;
31004;SDS011;17676;52.254;4.490;2023-04-29T11:46:10;8.32;;;3.20;;
31004;SDS011;17676;52.254;4.490;2023-04-29T11:48:44;5.50;;;3.30;;
31004;SDS011;17676;52.254;4.490;2023-04-29T11:51:11;7.00;;;3.08;;
31004;SDS011;17676;52.254;4.490;2023-04-29T11:53:38;6.65;;;4.07;;
31004;SDS011;17676;52.254;4.490;2023-04-29T11:56:04;4.95;;;3.70;;
31004;SDS011;17676;52.254;4.490;2023-04-29T11:58:30;7.15;;;3.70;;
31004;SDS011;17676;52.254;4.490;2023-04-29T12:00:56;4.07;;;2.35;;
31004;SDS011;17676;52.254;4.490;2023-04-29T12:03:23;3.13;;;2.08;;
31004;SDS011;17676;52.254;4.490;2023-04-29T12:05:52;4.97;;;2.05;;
31004;SDS011;17676;52.254;4.490;2023-04-29T12:08:22;6.97;;;2.38;;
31004;SDS011;17676;52.254;4.490;2023-04-29T12:10:49;7.63;;;2.40;;
31004;SDS011;17676;52.254;4.490;2023-04-29T12:13:15;7.35;;;2.00;;
31004;SDS011;17676;52.254;4.490;2023-04-29T12:15:43;7.72;;;1.55;;
31004;SDS011;17676;52.254;4.490;2023-04-29T12:18:10;4.90;;;1.70;;
31004;SDS011;17676;52.254;4.490;2023-04-29T12:20:37;7.97;;;1.55;;
31004;SDS011;17676;52.254;4.490;2023-04-29T12:23:10;6.10;;;1.45;;
31004;SDS011;17676;52.254;4.490;2023-04-29T12:25:37;5.78;;;2.00;;
31004;SDS011;17676;52.254;4.490;2023-04-29T12:28:03;4.75;;;1.80;;
31004;SDS011;17676;52.254;4.490;2023-04-29T12:30:28;5.85;;;2.05;;
31004;SDS011;17676;52.254;4.490;2023-04-29T12:32:54;7.82;;;2.53;;
31004;SDS011;17676;52.254;4.490;2023-04-29T12:35:20;8.13;;;2.53;;
31004;SDS011;17676;52.254;4.490;2023-04-29T12:37:49;7.22;;;2.20;;
31004;SDS011;17676;52.254;4.490;2023-04-29T12:40:15;5.22;;;1.92;;
31004;SDS011;17676;52.254;4.490;2023-04-29T12:42:52;9.35;;;2.35;;
31004;SDS011;17676;52.254;4.490;2023-04-29T12:45:24;9.80;;;2.53;;
31004;SDS011;17676;52.254;4.490;2023-04-29T12:47:51;7.05;;;1.60;;
31004;SDS011;17676;52.254;4.490;2023-04-29T12:50:17;9.00;;;1.98;;
31004;SDS011;17676;52.254;4.490;2023-04-29T12:52:43;5.32;;;1.27;;
31004;SDS011;17676;52.254;4.490;2023-04-29T12:55:10;6.10;;;1.55;;
31004;SDS011;17676;52.254;4.490;2023-04-29T12:57:35;4.82;;;1.50;;
31004;SDS011;17676;52.254;4.490;2023-04-29T13:00:02;4.60;;;1.27;;
31004;SDS011;17676;52.254;4.490;2023-04-29T13:02:28;6.82;;;1.55;;
31004;SDS011;17676;52.254;4.490;2023-04-29T13:04:53;4.65;;;1.38;;
31004;SDS011;17676;52.254;4.490;2023-04-29T13:07:19;6.95;;;1.90;;
31004;SDS011;17676;52.254;4.490;2023-04-29T13:09:45;4.50;;;1.15;;
31004;SDS011;17676;52.254;4.490;2023-04-29T13:12:10;5.95;;;0.98;;
31004;SDS011;17676;52.254;4.490;2023-04-29T13:14:36;5.80;;;1.20;;
31004;SDS011;17676;52.254;4.490;2023-04-29T13:17:02;6.70;;;1.50;;
31004;SDS011;17676;52.254;4.490;2023-04-29T13:19:28;5.50;;;1.48;;
31004;SDS011;17676;52.254;4.490;2023-04-29T13:21:53;3.90;;;1.10;;
31004;SDS011;17676;52.254;4.490;2023-04-29T13:24:19;7.97;;;1.30;;
31004;SDS011;17676;52.254;4.490;2023-04-29T13:26:45;4.25;;;1.38;;
31004;SDS011;17676;52.254;4.490;2023-04-29T13:29:12;5.97;;;1.95;;
31004;SDS011;17676;52.254;4.490;2023-04-29T13:31:39;5.65;;;1.70;;
31004;SDS011;17676;52.254;4.490;2023-04-29T13:34:04;3.20;;;1.42;;
31004;SDS011;17676;52.254;4.490;2023-04-29T13:36:30;5.65;;;1.10;;
31004;SDS011;17676;52.254;4.490;2023-04-29T13:38:56;5.07;;;1.38;;
31004;SDS011;17676;52.254;4.490;2023-04-29T13:41:21;7.50;;;3.72;;
31004;SDS011;17676;52.254;4.490;2023-04-29T13:43:47;4.00;;;1.00;;
31004;SDS011;17676;52.254;4.490;2023-04-29T13:46:13;7.20;;;4.45;;
31004;SDS011;17676;52.254;4.490;2023-04-29T13:48:38;5.38;;;2.17;;
31004;SDS011;17676;52.254;4.490;2023-04-29T13:51:04;5.55;;;1.42;;
31004;SDS011;17676;52.254;4.490;2023-04-29T13:53:30;5.80;;;1.83;;
31004;SDS011;17676;52.254;4.490;2023-04-29T13:55:55;4.00;;;1.25;;
31004;SDS011;17676;52.254;4.490;2023-04-29T13:58:21;10.55;;;1.60;;
31004;SDS011;17676;52.254;4.490;2023-04-29T14:00:47;7.80;;;1.90;;
31004;SDS011;17676;52.254;4.490;2023-04-29T14:03:13;4.25;;;1.58;;
31004;SDS011;17676;52.254;4.490;2023-04-29T14:05:39;4.10;;;1.58;;
31004;SDS011;17676;52.254;4.490;2023-04-29T14:08:05;11.25;;;2.03;;
31004;SDS011;17676;52.254;4.490;2023-04-29T14:10:34;4.57;;;1.50;;
31004;SDS011;17676;52.254;4.490;2023-04-29T14:13:02;4.00;;;1.20;;
31004;SDS011;17676;52.254;4.490;2023-04-29T14:15:27;6.35;;;1.65;;
31004;SDS011;17676;52.254;4.490;2023-04-29T14:17:53;3.85;;;1.60;;
31004;SDS011;17676;52.254;4.490;2023-04-29T14:20:19;6.70;;;2.00;;
31004;SDS011;17676;52.254;4.490;2023-04-29T14:22:45;6.03;;;1.60;;
31004;SDS011;17676;52.254;4.490;2023-04-29T14:25:11;2.53;;;1.45;;
31004;SDS011;17676;52.254;4.490;2023-04-29T14:27:37;7.20;;;2.40;;
31004;SDS011;17676;52.254;4.490;2023-04-29T14:30:03;6.30;;;2.35;;
31004;SDS011;17676;52.254;4.490;2023-04-29T14:32:29;4.57;;;1.70;;
31004;SDS011;17676;52.254;4.490;2023-04-29T14:34:55;5.63;;;1.35;;
31004;SDS011;17676;52.254;4.490;2023-04-29T14:37:20;6.07;;;1.38;;
31004;SDS011;17676;52.254;4.490;2023-04-29T14:39:46;5.93;;;1.45;;
31004;SDS011;17676;52.254;4.490;2023-04-29T14:42:12;6.38;;;1.17;;
31004;SDS011;17676;52.254;4.490;2023-04-29T14:44:39;10.10;;;1.73;;
31004;SDS011;17676;52.254;4.490;2023-04-29T14:47:05;2.90;;;1.63;;
31004;SDS011;17676;52.254;4.490;2023-04-29T14:49:31;5.85;;;1.85;;
31004;SDS011;17676;52.254;4.490;2023-04-29T14:51:57;12.02;;;2.28;;
31004;SDS011;17676;52.254;4.490;2023-04-29T14:54:22;4.40;;;1.02;;
31004;SDS011;17676;52.254;4.490;2023-04-29T14:56:51;3.33;;;0.88;;
31004;SDS011;17676;52.254;4.490;2023-04-29T14:59:16;3.33;;;0.73;;
31004;SDS011;17676;52.254;4.490;2023-04-29T15:01:42;3.63;;;0.60;;
31004;SDS011;17676;52.254;4.490;2023-04-29T15:04:08;1.45;;;0.40;;
31004;SDS011;17676;52.254;4.490;2023-04-29T15:06:34;2.42;;;0.50;;
31004;SDS011;17676;52.254;4.490;2023-04-29T15:09:00;1.67;;;0.68;;
31004;SDS011;17676;52.254;4.490;2023-04-29T15:11:26;6.28;;;0.68;;
31004;SDS011;17676;52.254;4.490;2023-04-29T15:13:52;5.20;;;0.70;;